Time;durP1;ratioP1;P1;durP2;ratioP2;P2;SDS_P1;SDS_P2;PMS_P1;PMS_P2;Temp;Humidity;BMP_temperature;BMP_pressure;BME280_temperature;BME280_humidity;BME280_pressure;Samples;Min_cycle;Max_cycle;Signal;HPM_P1;HPM_P2
2023/07/05 00:01:36;;;;;;;1.33;1.23;;;19.60;99.90;;;;;;5033385;28;20272;-55
2023/07/05 00:04:04;;;;;;;3.53;1.43;;;19.60;99.90;;;;;;5033418;28;20722;-57
2023/07/05 00:06:31;;;;;;;2.50;1.30;;;19.50;99.90;;;;;;5033734;28;20203;-55
2023/07/05 00:08:59;;;;;;;1.60;1.50;;;19.50;99.90;;;;;;5032058;28;20589;-55
2023/07/05 00:11:26;;;;;;;1.07;1.07;;;19.50;99.90;;;;;;5029191;28;20217;-55
2023/07/05 00:13:53;;;;;;;1.50;1.40;;;19.40;99.90;;;;;;5029279;28;20202;-56
2023/07/05 00:16:21;;;;;;;3.73;1.53;;;19.40;99.90;;;;;;5033147;28;20276;-55
2023/07/05 00:18:48;;;;;;;1.30;1.30;;;19.40;99.90;;;;;;5033710;28;20248;-55
2023/07/05 00:21:15;;;;;;;0.83;0.77;;;19.30;99.90;;;;;;5033249;28;20210;-55
2023/07/05 00:23:46;;;;;;;1.67;1.57;;;19.30;99.90;;;;;;5032080;28;20226;-55
2023/07/05 00:26:15;;;;;;;1.33;1.33;;;19.30;99.90;;;;;;5028625;28;20226;-55
2023/07/05 00:28:43;;;;;;;1.30;1.20;;;19.30;99.90;;;;;;5031607;28;20677;-55
2023/07/05 00:31:10;;;;;;;2.63;1.77;;;19.40;99.90;;;;;;5032324;28;20260;-55
2023/07/05 00:33:36;;;;;;;2.30;1.10;;;19.30;99.90;;;;;;5032699;28;20580;-55
2023/07/05 00:36:04;;;;;;;1.40;1.30;;;19.30;99.90;;;;;;5031236;28;20199;-57
2023/07/05 00:38:31;;;;;;;2.30;1.13;;;19.30;99.90;;;;;;5032984;28;20546;-56
2023/07/05 00:40:58;;;;;;;1.80;1.10;;;19.30;99.90;;;;;;5031698;28;20805;-55
2023/07/05 00:43:27;;;;;;;2.27;1.23;;;19.40;99.90;;;;;;5028190;28;20215;-55
2023/07/05 00:45:56;;;;;;;1.20;1.20;;;19.40;99.90;;;;;;5030993;28;20199;-55
2023/07/05 00:48:28;;;;;;;2.80;1.57;;;19.40;99.90;;;;;;5031046;28;20783;-56
2023/07/05 00:50:58;;;;;;;1.07;1.07;;;19.30;99.90;;;;;;5033297;28;20210;-56
2023/07/05 00:53:26;;;;;;;1.33;1.27;;;19.30;99.90;;;;;;5031185;28;20234;-55
2023/07/05 00:56:00;;;;;;;1.53;0.80;;;19.30;99.90;;;;;;5031622;28;20207;-55
2023/07/05 00:58:28;;;;;;;1.37;1.00;;;19.20;99.90;;;;;;5032141;28;20244;-55
2023/07/05 01:00:56;;;;;;;2.40;1.30;;;19.20;99.90;;;;;;5031030;28;20591;-56
2023/07/05 01:03:26;;;;;;;1.30;1.20;;;19.20;99.90;;;;;;5031375;28;20227;-56
2023/07/05 01:05:57;;;;;;;1.30;0.83;;;19.20;99.90;;;;;;5028857;28;20202;-55
2023/07/05 01:08:24;;;;;;;1.13;1.13;;;19.20;99.90;;;;;;5032317;28;20692;-56
2023/07/05 01:11:04;;;;;;;3.60;1.10;;;19.10;99.90;;;;;;5032312;28;20198;-56
2023/07/05 01:13:40;;;;;;;0.70;0.70;;;19.10;99.90;;;;;;5029172;28;20222;-55
2023/07/05 01:16:27;;;;;;;0.73;0.73;;;19.10;99.90;;;;;;5032567;28;20194;-55
2023/07/05 01:19:01;;;;;;;1.13;0.50;;;19.10;99.90;;;;;;5031471;28;20281;-55
2023/07/05 01:21:43;;;;;;;1.43;0.90;;;19.00;99.90;;;;;;5031732;28;20206;-55
2023/07/05 01:24:50;;;;;;;1.80;1.00;;;19.00;99.90;;;;;;5030781;28;20210;-55
2023/07/05 01:27:54;;;;;;;2.10;0.90;;;18.90;99.90;;;;;;4944306;29;20284;-55
2023/07/05 01:31:01;;;;;;;0.87;0.87;;;18.90;99.90;;;;;;5031974;28;20209;-55
2023/07/05 01:33:37;;;;;;;1.63;1.50;;;18.90;99.90;;;;;;4990724;28;20230;-55
2023/07/05 01:36:06;;;;;;;0.80;0.80;;;18.80;99.90;;;;;;5031187;28;20298;-55
2023/07/05 01:38:33;;;;;;;1.30;1.20;;;18.80;99.90;;;;;;5030788;28;20203;-55
2023/07/05 01:41:03;;;;;;;3.93;1.30;;;18.80;99.90;;;;;;5030981;28;20619;-55
2023/07/05 01:43:32;;;;;;;2.83;0.90;;;18.80;99.90;;;;;;5027718;28;20704;-55
2023/07/05 01:46:13;;;;;;;0.93;0.93;;;18.80;99.90;;;;;;5028143;28;20668;-55
2023/07/05 01:48:54;;;;;;;1.40;0.80;;;18.80;99.90;;;;;;5029678;28;20798;-56
2023/07/05 01:51:27;;;;;;;1.73;0.90;;;18.70;99.90;;;;;;5029974;28;20209;-55
2023/07/05 01:54:01;;;;;;;2.00;0.90;;;18.60;99.90;;;;;;5030077;28;20230;-55
2023/07/05 01:56:34;;;;;;;3.77;1.20;;;18.60;99.90;;;;;;5030852;28;20688;-55
2023/07/05 01:59:04;;;;;;;2.27;1.10;;;18.60;99.90;;;;;;5031393;28;20256;-55
2023/07/05 02:01:34;;;;;;;2.17;1.80;;;18.60;99.90;;;;;;5031182;28;20740;-55
2023/07/05 02:04:06;;;;;;;1.50;1.07;;;18.50;99.90;;;;;;5029437;28;20289;-56
2023/07/05 02:06:36;;;;;;;1.20;0.70;;;18.40;99.90;;;;;;5031356;28;20233;-55
2023/07/05 02:09:03;;;;;;;0.73;0.73;;;18.40;99.90;;;;;;5031166;28;20222;-55
2023/07/05 02:11:30;;;;;;;1.30;1.20;;;18.40;99.90;;;;;;5030644;28;20264;-55
2023/07/05 02:13:57;;;;;;;3.60;1.00;;;18.30;99.90;;;;;;5029690;28;20229;-55
2023/07/05 02:16:24;;;;;;;2.40;1.10;;;18.30;99.90;;;;;;5029634;28;20260;-57
2023/07/05 02:18:51;;;;;;;1.77;0.70;;;18.30;99.90;;;;;;5030877;28;20199;-55
2023/07/05 02:21:20;;;;;;;2.87;1.00;;;18.30;99.90;;;;;;5031173;28;20199;-55
2023/07/05 02:23:46;;;;;;;0.60;0.60;;;18.20;99.90;;;;;;5029590;28;20226;-55
2023/07/05 02:26:13;;;;;;;0.97;0.90;;;18.20;99.90;;;;;;5030363;28;20199;-55
2023/07/05 02:28:40;;;;;;;6.50;1.53;;;18.20;99.90;;;;;;5029723;28;20300;-55
2023/07/05 02:31:11;;;;;;;0.70;0.70;;;18.10;99.90;;;;;;5022680;28;20588;-56
2023/07/05 02:33:39;;;;;;;2.97;1.40;;;18.10;99.90;;;;;;5029816;28;20222;-55
2023/07/05 02:36:10;;;;;;;2.83;0.70;;;18.00;99.90;;;;;;5030740;28;20615;-55
2023/07/05 02:38:39;;;;;;;0.63;0.63;;;18.00;99.90;;;;;;5029893;28;20198;-55
2023/07/05 02:41:06;;;;;;;2.50;1.00;;;18.00;99.90;;;;;;5029585;28;20249;-55
2023/07/05 02:43:34;;;;;;;2.20;0.87;;;18.00;99.90;;;;;;5029544;28;20245;-56
2023/07/05 02:46:01;;;;;;;4.77;0.90;;;17.90;99.90;;;;;;5030540;28;20202;-55
2023/07/05 02:48:28;;;;;;;1.13;0.80;;;17.90;99.90;;;;;;5030482;28;20706;-56
2023/07/05 02:50:55;;;;;;;1.37;1.20;;;17.90;99.90;;;;;;5029002;28;20268;-55
2023/07/05 02:53:22;;;;;;;0.80;0.80;;;17.90;99.90;;;;;;5029386;28;20230;-55
2023/07/05 02:55:50;;;;;;;1.20;1.20;;;18.00;99.90;;;;;;5029650;28;20238;-56
2023/07/05 02:58:17;;;;;;;1.27;1.10;;;18.10;99.90;;;;;;5030288;28;20269;-55
2023/07/05 03:00:44;;;;;;;2.47;1.00;;;18.10;99.90;;;;;;5028724;28;20260;-55
2023/07/05 03:03:11;;;;;;;1.40;1.17;;;18.10;99.90;;;;;;5029147;28;20254;-55
2023/07/05 03:05:38;;;;;;;0.90;0.90;;;18.20;99.90;;;;;;5029176;28;20203;-56
2023/07/05 03:08:05;;;;;;;1.40;1.30;;;18.20;99.90;;;;;;5030177;28;20214;-55
2023/07/05 03:10:32;;;;;;;3.37;1.17;;;18.30;99.90;;;;;;5030050;28;20237;-55
2023/07/05 03:13:01;;;;;;;1.23;1.23;;;18.30;99.90;;;;;;5029398;28;20269;-55
2023/07/05 03:15:28;;;;;;;0.70;0.70;;;18.30;99.90;;;;;;5030303;28;20274;-55
2023/07/05 03:17:54;;;;;;;2.70;0.80;;;18.30;99.90;;;;;;5029808;28;20846;-55
2023/07/05 03:20:21;;;;;;;1.93;0.90;;;18.30;99.90;;;;;;5030147;28;20194;-55
2023/07/05 03:22:49;;;;;;;2.47;1.17;;;18.40;99.90;;;;;;5028867;28;20791;-55
2023/07/05 03:25:16;;;;;;;0.83;0.80;;;18.40;99.90;;;;;;5030138;28;20284;-55
2023/07/05 03:27:43;;;;;;;0.80;0.80;;;18.50;99.90;;;;;;5028882;28;20233;-55
2023/07/05 03:30:13;;;;;;;0.67;0.63;;;18.50;99.90;;;;;;5030245;28;20292;-56
2023/07/05 03:32:43;;;;;;;1.07;0.90;;;18.50;99.90;;;;;;5029277;28;20223;-55
2023/07/05 03:35:10;;;;;;;3.20;0.80;;;18.50;99.90;;;;;;5022116;28;20205;-56
2023/07/05 03:37:37;;;;;;;14.83;1.07;;;18.50;99.90;;;;;;5030426;28;20202;-55
2023/07/05 03:40:05;;;;;;;1.43;1.20;;;18.50;99.90;;;;;;5028848;28;20202;-56
2023/07/05 03:42:36;;;;;;;1.30;1.20;;;18.50;99.90;;;;;;5029180;28;20272;-55
2023/07/05 03:45:03;;;;;;;1.13;1.10;;;18.50;99.90;;;;;;5028995;28;20211;-56
2023/07/05 03:47:31;;;;;;;3.60;1.17;;;18.50;99.90;;;;;;5029921;28;20199;-55
2023/07/05 03:49:58;;;;;;;1.00;0.93;;;18.50;99.90;;;;;;5030162;28;20222;-56
2023/07/05 03:52:25;;;;;;;3.80;1.23;;;18.50;99.90;;;;;;5028592;28;20300;-55
2023/07/05 03:54:52;;;;;;;0.70;0.70;;;18.50;99.90;;;;;;5029459;28;20207;-56
2023/07/05 03:57:20;;;;;;;1.30;1.20;;;18.50;99.90;;;;;;5029955;28;20206;-56
2023/07/05 03:59:47;;;;;;;3.67;1.30;;;18.50;99.90;;;;;;5029933;28;20261;-55
2023/07/05 04:02:14;;;;;;;1.00;1.00;;;18.50;99.90;;;;;;5029731;28;20226;-56
2023/07/05 04:04:44;;;;;;;1.47;0.63;;;18.50;99.90;;;;;;5024980;28;20202;-55
2023/07/05 04:07:11;;;;;;;2.00;0.90;;;18.60;99.90;;;;;;5026278;28;20194;-55
2023/07/05 04:09:38;;;;;;;1.00;0.83;;;18.60;99.90;;;;;;5033540;28;20226;-55
2023/07/05 04:12:06;;;;;;;1.77;1.10;;;18.70;99.90;;;;;;5033131;28;20296;-55
2023/07/05 04:14:32;;;;;;;0.70;0.70;;;18.80;99.90;;;;;;5032685;28;20233;-55
2023/07/05 04:16:59;;;;;;;1.00;0.90;;;18.60;99.90;;;;;;5032372;28;20203;-56
2023/07/05 04:19:27;;;;;;;1.10;1.00;;;18.60;99.90;;;;;;5033286;28;20194;-55
2023/07/05 04:21:55;;;;;;;2.40;0.97;;;18.60;99.90;;;;;;5033371;28;20287;-56
2023/07/05 04:24:22;;;;;;;0.90;0.90;;;18.50;99.90;;;;;;5031895;28;20203;-56
2023/07/05 04:26:49;;;;;;;1.00;0.93;;;18.50;99.90;;;;;;5032415;28;20745;-56
2023/07/05 04:29:16;;;;;;;1.07;1.07;;;18.60;99.90;;;;;;5033057;28;20214;-55
2023/07/05 04:31:43;;;;;;;1.73;0.97;;;18.60;99.90;;;;;;5033177;28;20207;-55
2023/07/05 04:34:09;;;;;;;1.27;1.10;;;18.60;99.90;;;;;;5032080;28;20199;-57
2023/07/05 04:36:36;;;;;;;0.80;0.80;;;18.60;99.90;;;;;;5033137;28;20612;-57
2023/07/05 04:39:05;;;;;;;0.90;0.70;;;18.60;99.90;;;;;;5029992;28;20206;-55
2023/07/05 04:41:32;;;;;;;3.37;1.20;;;18.80;99.90;;;;;;5032658;28;20573;-57
2023/07/05 04:43:59;;;;;;;1.10;1.07;;;18.80;99.90;;;;;;5032205;28;20252;-55
2023/07/05 04:46:25;;;;;;;0.90;0.90;;;18.90;99.90;;;;;;5035403;28;20627;-56
2023/07/05 04:48:52;;;;;;;1.13;0.97;;;19.00;99.90;;;;;;5031867;28;20203;-55
2023/07/05 04:51:20;;;;;;;1.03;0.80;;;19.00;99.90;;;;;;5032716;28;20223;-56
2023/07/05 04:53:47;;;;;;;0.70;0.70;;;19.10;99.90;;;;;;5031698;28;20283;-56
2023/07/05 04:56:16;;;;;;;0.90;0.90;;;19.20;99.90;;;;;;5032751;28;20279;-56
2023/07/05 04:58:44;;;;;;;1.60;1.00;;;19.20;99.90;;;;;;5032842;28;20252;-56
2023/07/05 05:01:13;;;;;;;2.30;0.90;;;19.20;99.90;;;;;;5032774;28;20256;-55
2023/07/05 05:03:40;;;;;;;0.83;0.83;;;19.20;99.90;;;;;;5032058;28;20313;-55
2023/07/05 05:06:07;;;;;;;2.13;0.80;;;19.20;99.90;;;;;;5032306;28;20198;-56
2023/07/05 05:08:34;;;;;;;1.03;0.77;;;19.20;99.90;;;;;;5032477;28;20240;-55
2023/07/05 05:11:04;;;;;;;1.30;0.60;;;19.20;99.90;;;;;;5032294;28;20280;-55
2023/07/05 05:13:35;;;;;;;0.70;0.70;;;19.30;99.90;;;;;;5031373;28;20284;-57
2023/07/05 05:16:02;;;;;;;1.57;0.90;;;19.40;99.90;;;;;;5031846;28;20665;-55
2023/07/05 05:18:31;;;;;;;2.10;1.17;;;19.50;99.90;;;;;;5031654;28;20199;-55
2023/07/05 05:20:58;;;;;;;2.93;0.90;;;19.70;99.90;;;;;;5032329;28;20603;-55
2023/07/05 05:23:26;;;;;;;1.70;0.67;;;19.90;99.90;;;;;;5031007;28;20272;-56
2023/07/05 05:25:53;;;;;;;0.60;0.60;;;20.30;99.90;;;;;;5029350;28;20285;-56
2023/07/05 05:28:20;;;;;;;1.33;1.10;;;20.70;99.90;;;;;;5032026;28;20199;-56
2023/07/05 05:30:49;;;;;;;2.10;0.87;;;21.20;99.90;;;;;;5031896;28;20218;-56
2023/07/05 05:33:17;;;;;;;0.80;0.80;;;21.50;99.90;;;;;;5031572;28;20313;-56
2023/07/05 05:35:48;;;;;;;0.80;0.80;;;21.50;99.90;;;;;;5023032;28;20308;-56
2023/07/05 05:38:16;;;;;;;0.70;0.70;;;21.60;99.90;;;;;;5031047;28;20207;-55
2023/07/05 05:40:43;;;;;;;1.13;0.73;;;21.50;99.90;;;;;;5031970;28;20740;-55
2023/07/05 05:43:10;;;;;;;0.57;0.57;;;21.30;99.90;;;;;;5028332;28;20222;-55
2023/07/05 05:45:37;;;;;;;1.67;0.87;;;21.30;99.90;;;;;;5024377;28;20349;-56
2023/07/05 05:48:06;;;;;;;0.60;0.60;;;21.20;99.90;;;;;;5030722;28;20637;-55
2023/07/05 05:50:33;;;;;;;1.57;1.10;;;20.90;99.90;;;;;;5027745;28;20230;-55
2023/07/05 05:53:00;;;;;;;0.87;0.87;;;20.70;99.90;;;;;;5031132;28;20276;-56
2023/07/05 05:55:27;;;;;;;1.97;1.80;;;20.50;99.90;;;;;;5029543;28;20525;-56
2023/07/05 05:57:54;;;;;;;1.00;0.90;;;20.40;99.90;;;;;;5029686;28;20256;-55
2023/07/05 06:00:22;;;;;;;0.73;0.73;;;20.30;99.90;;;;;;5031168;28;20668;-55
2023/07/05 06:02:49;;;;;;;1.33;0.60;;;20.20;99.90;;;;;;5031381;28;20658;-55
2023/07/05 06:05:18;;;;;;;2.60;1.07;;;20.10;99.90;;;;;;5030638;28;20268;-58
2023/07/05 06:07:45;;;;;;;0.80;0.80;;;20.10;99.90;;;;;;5031198;28;20202;-57
2023/07/05 06:10:12;;;;;;;1.20;1.10;;;20.00;99.90;;;;;;5031693;28;20234;-57
2023/07/05 06:12:41;;;;;;;1.20;1.10;;;20.00;99.90;;;;;;5031097;28;20288;-56
2023/07/05 06:15:11;;;;;;;0.70;0.70;;;20.00;99.90;;;;;;5030865;28;20285;-56
2023/07/05 06:17:41;;;;;;;1.57;0.80;;;19.90;99.90;;;;;;5028519;28;20198;-57
2023/07/05 06:20:10;;;;;;;0.80;0.80;;;19.90;99.90;;;;;;5025734;28;20244;-56
2023/07/05 06:22:41;;;;;;;2.03;1.00;;;19.90;99.90;;;;;;5030854;28;20732;-58
2023/07/05 06:25:11;;;;;;;0.83;0.70;;;20.00;99.90;;;;;;5033523;28;20288;-57
2023/07/05 06:27:39;;;;;;;2.03;1.73;;;20.00;99.90;;;;;;5034883;28;20207;-57
2023/07/05 06:30:07;;;;;;;1.37;0.90;;;20.10;99.90;;;;;;5031394;28;20309;-57
2023/07/05 06:32:37;;;;;;;3.43;1.30;;;20.20;99.90;;;;;;5031018;28;20234;-57
2023/07/05 06:35:05;;;;;;;22.33;4.90;;;20.30;99.90;;;;;;5024373;28;20210;-57
2023/07/05 06:37:36;;;;;;;4.37;1.60;;;20.30;99.90;;;;;;5031545;28;20203;-56
2023/07/05 06:40:05;;;;;;;1.70;0.90;;;20.40;99.90;;;;;;5031779;28;20225;-56
2023/07/05 06:42:33;;;;;;;3.33;0.70;;;20.30;99.90;;;;;;5044703;28;20306;-56
2023/07/05 06:45:00;;;;;;;1.33;1.00;;;20.50;99.90;;;;;;5035855;28;20292;-56
2023/07/05 06:47:27;;;;;;;1.87;1.17;;;20.90;99.90;;;;;;5029041;28;20217;-56
2023/07/05 06:49:55;;;;;;;0.70;0.70;;;21.40;99.90;;;;;;5030733;28;20531;-57
2023/07/05 06:52:22;;;;;;;1.20;1.00;;;22.20;99.90;;;;;;5030176;28;20245;-57
2023/07/05 06:54:49;;;;;;;1.17;0.80;;;22.60;99.90;;;;;;5029284;28;20209;-56
2023/07/05 06:57:18;;;;;;;2.37;0.97;;;22.40;99.90;;;;;;5030843;28;20272;-57
2023/07/05 06:59:45;;;;;;;1.03;0.83;;;22.60;99.90;;;;;;5029828;28;20218;-56
2023/07/05 07:02:12;;;;;;;0.97;0.80;;;22.60;99.90;;;;;;5029650;28;20627;-57
2023/07/05 07:04:39;;;;;;;6.33;1.23;;;22.50;99.90;;;;;;5028659;28;20217;-57
2023/07/05 07:07:07;;;;;;;0.80;0.80;;;22.40;99.90;;;;;;5057052;23;20313;-53
2023/07/05 07:09:34;;;;;;;1.27;1.17;;;22.10;99.90;;;;;;5049648;28;20216;-53
2023/07/05 07:12:01;;;;;;;2.33;1.17;;;21.80;99.90;;;;;;5050547;28;20222;-53
2023/07/05 07:14:30;;;;;;;2.77;0.97;;;21.80;99.90;;;;;;5050070;28;20608;-54
2023/07/05 07:16:57;;;;;;;1.43;1.33;;;21.80;99.90;;;;;;5051020;28;20217;-53
2023/07/05 07:19:24;;;;;;;1.67;1.37;;;22.00;99.90;;;;;;5050796;28;20205;-53
2023/07/05 07:22:09;;;;;;;1.57;1.23;;;22.20;99.90;;;;;;5050865;28;20928;-54
2023/07/05 07:24:37;;;;;;;1.80;1.10;;;22.60;99.90;;;;;;5050217;28;20202;-54
2023/07/05 07:27:05;;;;;;;1.17;1.17;;;23.50;99.90;;;;;;5050744;28;20230;-54
2023/07/05 07:29:34;;;;;;;2.30;1.20;;;23.50;99.90;;;;;;5050758;28;20275;-54
2023/07/05 07:32:01;;;;;;;2.30;1.37;;;23.50;99.90;;;;;;5050705;28;20218;-54
2023/07/05 07:34:31;;;;;;;1.00;1.00;;;23.30;99.90;;;;;;5050108;28;20197;-54
2023/07/05 07:36:58;;;;;;;1.23;0.80;;;22.80;99.90;;;;;;5050721;28;20217;-54
2023/07/05 07:39:25;;;;;;;4.67;1.00;;;22.60;99.90;;;;;;5054896;28;20631;-54
2023/07/05 07:41:52;;;;;;;2.70;1.20;;;22.40;99.90;;;;;;5054742;28;20198;-54
2023/07/05 07:44:19;;;;;;;3.57;1.60;;;22.10;99.90;;;;;;5053951;28;20742;-54
2023/07/05 07:46:48;;;;;;;1.27;1.17;;;21.90;99.90;;;;;;5054263;28;20224;-54
2023/07/05 07:49:15;;;;;;;2.03;0.80;;;21.70;99.90;;;;;;5054756;28;20205;-54
2023/07/05 07:51:44;;;;;;;3.03;1.50;;;21.70;99.90;;;;;;5054647;28;20267;-54
2023/07/05 07:54:14;;;;;;;1.63;1.40;;;21.70;99.90;;;;;;5053711;28;20718;-54
2023/07/05 07:56:44;;;;;;;2.53;1.47;;;21.60;99.90;;;;;;5054472;28;20595;-54
2023/07/05 07:59:11;;;;;;;3.53;1.30;;;21.70;99.90;;;;;;5054640;28;20554;-54
2023/07/05 08:01:39;;;;;;;1.37;1.27;;;21.70;99.90;;;;;;5054573;28;20251;-54
2023/07/05 08:04:09;;;;;;;1.77;0.90;;;21.90;99.90;;;;;;5053327;28;20664;-54
2023/07/05 08:06:39;;;;;;;2.63;1.80;;;22.20;99.90;;;;;;5052537;28;20230;-54
2023/07/05 08:09:07;;;;;;;2.60;1.70;;;23.00;99.90;;;;;;5054142;28;20279;-57
2023/07/05 08:11:34;;;;;;;1.30;1.17;;;23.60;99.90;;;;;;5053984;28;20768;-54
2023/07/05 08:14:01;;;;;;;1.77;1.37;;;24.10;99.90;;;;;;5053959;28;20267;-53
2023/07/05 08:16:28;;;;;;;3.80;1.60;;;24.60;99.90;;;;;;5054252;28;20280;-53
2023/07/05 08:18:57;;;;;;;0.90;0.90;;;24.60;99.90;;;;;;5053857;28;20233;-53
2023/07/05 08:21:25;;;;;;;0.80;0.80;;;24.40;99.90;;;;;;5054206;28;20220;-54
2023/07/05 08:23:52;;;;;;;1.43;0.90;;;24.30;99.90;;;;;;5054682;28;20194;-53
2023/07/05 08:26:19;;;;;;;2.87;1.30;;;24.10;99.90;;;;;;5050976;28;20698;-54
2023/07/05 08:28:46;;;;;;;2.90;1.10;;;23.80;99.90;;;;;;5052105;28;20656;-54
2023/07/05 08:31:14;;;;;;;2.73;1.40;;;23.50;99.90;;;;;;5057775;28;20266;-53
2023/07/05 08:33:43;;;;;;;1.33;1.00;;;23.40;99.90;;;;;;5058914;28;20256;-53
2023/07/05 08:36:18;;;;;;;3.07;1.47;;;23.40;99.90;;;;;;5055562;28;20597;-53
2023/07/05 08:38:50;;;;;;;1.70;1.27;;;23.20;99.90;;;;;;5073711;28;20232;-54
2023/07/05 08:41:27;;;;;;;2.07;1.47;;;22.70;99.90;;;;;;5073902;28;20246;-53
2023/07/05 08:44:01;;;;;;;1.07;1.03;;;22.40;99.90;;;;;;5066368;28;20643;-53
2023/07/05 08:46:29;;;;;;;4.30;1.30;;;22.50;99.90;;;;;;5047030;28;20280;-53
2023/07/05 08:49:02;;;;;;;1.53;1.17;;;22.60;99.90;;;;;;5059684;28;20209;-53
2023/07/05 08:51:30;;;;;;;1.17;1.17;;;22.90;99.90;;;;;;5053324;28;20214;-53
2023/07/05 08:54:04;;;;;;;3.63;1.23;;;23.40;99.90;;;;;;5053060;28;20220;-53
2023/07/05 08:56:38;;;;;;;1.77;1.53;;;23.50;99.90;;;;;;5053205;28;20233;-53
2023/07/05 08:59:14;;;;;;;2.87;1.33;;;23.70;99.90;;;;;;5053797;28;20206;-53
2023/07/05 09:01:42;;;;;;;7.70;1.60;;;23.70;99.90;;;;;;5052695;28;20251;-53
2023/07/05 09:04:12;;;;;;;3.90;1.67;;;23.50;99.90;;;;;;5054208;28;20194;-53
2023/07/05 09:06:50;;;;;;;4.30;1.20;;;23.70;99.90;;;;;;5046516;28;20691;-53
2023/07/05 09:09:32;;;;;;;5.90;1.23;;;23.70;99.90;;;;;;5046134;28;20510;-60
2023/07/05 09:12:11;;;;;;;1.20;1.20;;;23.70;99.90;;;;;;5052466;28;20220;-61
2023/07/05 09:14:55;;;;;;;8.43;2.83;;;23.60;99.90;;;;;;5051816;28;20210;-60
2023/07/05 09:17:35;;;;;;;7.83;3.10;;;23.50;99.90;;;;;;5045313;28;20229;-60
2023/07/05 09:20:20;;;;;;;9.13;3.13;;;23.30;99.90;;;;;;5052744;28;20205;-60
2023/07/05 09:22:48;;;;;;;11.17;2.53;;;23.10;99.90;;;;;;5052579;28;20296;-59
2023/07/05 09:25:21;;;;;;;6.37;1.93;;;22.80;99.90;;;;;;5052457;28;20288;-60
2023/07/05 09:27:54;;;;;;;3.10;2.33;;;22.60;99.90;;;;;;5052591;28;20229;-62
2023/07/05 09:30:24;;;;;;;2.40;2.30;;;22.30;99.90;;;;;;5052693;28;20210;-61
2023/07/05 09:33:00;;;;;;;2.73;2.13;;;21.70;99.90;;;;;;5052418;28;20245;-64
2023/07/05 09:35:29;;;;;;;2.03;1.93;;;21.00;99.90;;;;;;5051794;28;20209;-63
2023/07/05 09:38:04;;;;;;;3.60;2.17;;;20.40;99.90;;;;;;5049803;28;20638;-60
2023/07/05 09:40:38;;;;;;;2.83;1.77;;;19.80;99.90;;;;;;5052961;28;20764;-58
2023/07/05 09:43:08;;;;;;;1.67;1.53;;;19.70;99.90;;;;;;5051604;28;20298;-58
2023/07/05 09:45:35;;;;;;;1.43;1.40;;;19.60;99.90;;;;;;5051901;28;20259;-60
2023/07/05 09:48:04;;;;;;;1.73;1.63;;;19.60;99.90;;;;;;5051021;28;21430;-63
2023/07/05 09:50:32;;;;;;;1.50;1.50;;;19.60;99.90;;;;;;5052216;28;20209;-60
2023/07/05 09:53:01;;;;;;;1.63;1.17;;;19.70;99.90;;;;;;5051588;28;20745;-62
2023/07/05 09:55:28;;;;;;;1.17;1.17;;;19.90;99.90;;;;;;5052689;28;20271;-62
2023/07/05 09:57:56;;;;;;;0.83;0.83;;;20.00;99.90;;;;;;5051656;28;20218;-62
2023/07/05 10:00:27;;;;;;;1.20;1.10;;;20.00;99.90;;;;;;5051417;28;20206;-59
2023/07/05 10:02:59;;;;;;;1.43;0.73;;;20.10;99.90;;;;;;5051013;28;20642;-52
2023/07/05 10:05:28;;;;;;;1.47;1.37;;;20.10;99.90;;;;;;5050410;28;20626;-52
2023/07/05 10:07:58;;;;;;;1.70;0.80;;;19.90;99.90;;;;;;5048922;28;20768;-53
2023/07/05 10:10:28;;;;;;;1.33;0.77;;;19.90;99.90;;;;;;5048692;28;20197;-53
2023/07/05 10:13:04;;;;;;;0.67;0.60;;;20.00;99.90;;;;;;5044694;28;20217;-56
2023/07/05 10:15:31;;;;;;;0.63;0.63;;;19.90;99.90;;;;;;5047555;28;20629;-53
2023/07/05 10:17:58;;;;;;;0.50;0.50;;;19.90;99.90;;;;;;5050045;28;20245;-53
2023/07/05 10:20:28;;;;;;;0.70;0.70;;;19.70;99.90;;;;;;5051746;28;20296;-53
2023/07/05 10:23:01;;;;;;;0.90;0.70;;;19.30;99.90;;;;;;5051965;28;20198;-53
2023/07/05 10:25:33;;;;;;;0.60;0.60;;;19.30;99.90;;;;;;5051272;28;20213;-53
2023/07/05 10:28:03;;;;;;;1.23;0.87;;;19.20;99.90;;;;;;5052382;28;20229;-52
2023/07/05 10:30:30;;;;;;;1.17;0.93;;;19.20;99.90;;;;;;5052417;28;20205;-53
2023/07/05 10:33:15;;;;;;;1.07;0.50;;;19.00;99.90;;;;;;5051955;28;20231;-53
2023/07/05 10:35:47;;;;;;;1.53;0.77;;;18.90;99.90;;;;;;5051935;28;20201;-53
2023/07/05 10:38:26;;;;;;;1.27;1.27;;;18.80;99.90;;;;;;5051688;28;20255;-53
2023/07/05 10:40:57;;;;;;;1.00;0.80;;;18.80;99.90;;;;;;5050496;28;20198;-53
2023/07/05 10:43:26;;;;;;;2.13;0.70;;;18.90;99.90;;;;;;5051141;28;20259;-53
2023/07/05 10:45:53;;;;;;;0.50;0.50;;;18.80;99.90;;;;;;5051137;28;20206;-54
2023/07/05 10:48:26;;;;;;;1.57;1.07;;;18.80;99.90;;;;;;5049145;28;20255;-53
2023/07/05 10:50:54;;;;;;;0.70;0.70;;;18.80;99.90;;;;;;5050464;28;20668;-53
2023/07/05 10:53:24;;;;;;;2.13;0.87;;;18.80;99.90;;;;;;5051092;28;20281;-53
2023/07/05 10:55:56;;;;;;;0.87;0.87;;;18.70;99.90;;;;;;5051414;28;20204;-53
2023/07/05 10:58:29;;;;;;;1.57;1.47;;;18.70;99.90;;;;;;5051789;28;20198;-53
2023/07/05 11:01:04;;;;;;;0.90;0.90;;;18.60;99.90;;;;;;5050901;28;20213;-54
2023/07/05 11:03:42;;;;;;;1.00;1.00;;;18.50;99.90;;;;;;5051685;28;20642;-53
2023/07/05 11:06:10;;;;;;;1.00;1.00;;;18.50;99.90;;;;;;5051527;28;20229;-54
2023/07/05 11:08:40;;;;;;;2.63;1.73;;;18.60;99.90;;;;;;5040083;28;20198;-53
2023/07/05 11:11:17;;;;;;;1.60;1.20;;;18.60;99.90;;;;;;5043101;28;20204;-53
2023/07/05 11:13:47;;;;;;;1.00;1.00;;;18.70;99.90;;;;;;5050293;28;20205;-54
2023/07/05 11:16:19;;;;;;;2.87;1.23;;;18.90;99.90;;;;;;5048967;28;20595;-53
2023/07/05 11:18:47;;;;;;;0.90;0.90;;;19.10;99.90;;;;;;5046170;28;20229;-53
2023/07/05 11:21:38;;;;;;;1.30;1.30;;;19.20;99.90;;;;;;5050845;28;20198;-53
2023/07/05 11:24:09;;;;;;;1.50;1.40;;;19.30;99.90;;;;;;5049095;28;20243;-53
2023/07/05 11:26:38;;;;;;;1.33;1.23;;;19.40;99.90;;;;;;5051061;28;20217;-54
2023/07/05 11:29:51;;;;;;;1.20;1.10;;;19.60;99.90;;;;;;5050891;28;20243;-53
2023/07/05 11:32:21;;;;;;;1.33;1.23;;;19.80;99.90;;;;;;5050185;28;20244;-54
2023/07/05 11:34:50;;;;;;;1.10;1.00;;;20.00;99.90;;;;;;5049237;28;20618;-54
2023/07/05 11:37:43;;;;;;;3.90;1.37;;;20.20;99.90;;;;;;5050257;28;20312;-54
2023/07/05 11:40:54;;;;;;;1.57;1.47;;;20.30;99.90;;;;;;5043049;28;20568;-54
2023/07/05 11:43:25;;;;;;;1.93;1.00;;;20.50;99.90;;;;;;5027729;28;20201;-53
2023/07/05 11:45:52;;;;;;;2.23;2.13;;;20.80;99.90;;;;;;5049968;28;20225;-54
2023/07/05 11:48:42;;;;;;;1.33;1.10;;;20.90;99.90;;;;;;5050215;28;20206;-53
2023/07/05 11:51:22;;;;;;;1.60;1.50;;;20.90;99.90;;;;;;5036348;28;20224;-54
2023/07/05 11:53:49;;;;;;;1.53;0.87;;;21.00;99.90;;;;;;5050548;28;20259;-54
2023/07/05 11:56:18;;;;;;;1.70;1.63;;;21.20;99.90;;;;;;5048704;28;20218;-53
2023/07/05 11:58:47;;;;;;;2.30;1.30;;;21.20;99.90;;;;;;5052514;28;20572;-54
2023/07/05 12:01:27;;;;;;;1.70;1.60;;;21.10;99.90;;;;;;5051289;28;20205;-53
2023/07/05 12:04:00;;;;;;;2.83;1.40;;;21.20;99.90;;;;;;5049572;28;20259;-53
2023/07/05 12:06:38;;;;;;;1.27;1.27;;;21.30;99.90;;;;;;5050912;28;20226;-54
2023/07/05 12:09:09;;;;;;;1.33;1.33;;;21.50;99.90;;;;;;5048354;28;20774;-58
2023/07/05 12:11:38;;;;;;;1.27;1.17;;;21.70;99.90;;;;;;5052003;28;20214;-59
2023/07/05 12:14:07;;;;;;;0.90;0.83;;;21.80;99.90;;;;;;5044004;28;20190;-61
2023/07/05 12:16:35;;;;;;;2.10;0.70;;;22.00;99.90;;;;;;5032882;28;20226;-62
2023/07/05 12:19:05;;;;;;;1.00;0.80;;;22.20;99.90;;;;;;5064816;28;20583;-61
2023/07/05 12:21:33;;;;;;;0.73;0.73;;;22.30;99.90;;;;;;5050700;28;20264;-54
2023/07/05 12:24:03;;;;;;;0.70;0.70;;;22.40;99.90;;;;;;5050565;28;20197;-60
2023/07/05 12:26:34;;;;;;;1.53;1.13;;;22.50;99.90;;;;;;5053542;28;20225;-61
2023/07/05 12:29:03;;;;;;;1.03;0.60;;;22.70;99.90;;;;;;5054192;28;20285;-59
2023/07/05 12:31:31;;;;;;;0.43;0.43;;;22.80;99.90;;;;;;5054053;28;20625;-61
2023/07/05 12:34:04;;;;;;;0.80;0.80;;;23.00;99.90;;;;;;5054268;28;20201;-59
2023/07/05 12:36:40;;;;;;;1.10;0.90;;;22.70;99.90;;;;;;5053976;28;20253;-53
2023/07/05 12:39:10;;;;;;;1.37;0.80;;;22.70;99.90;;;;;;5054102;28;20693;-61
2023/07/05 12:41:37;;;;;;;0.70;0.70;;;22.60;99.90;;;;;;5053240;28;20301;-60
2023/07/05 12:44:07;;;;;;;1.53;0.90;;;22.60;99.90;;;;;;5051953;28;20206;-63
2023/07/05 12:46:36;;;;;;;0.90;0.90;;;22.70;99.90;;;;;;5052121;28;20256;-63
2023/07/05 12:49:20;;;;;;;1.10;1.10;;;23.00;99.90;;;;;;5051485;28;20676;-60
2023/07/05 12:51:49;;;;;;;0.90;0.87;;;22.90;99.90;;;;;;5045382;28;20571;-60
2023/07/05 12:54:17;;;;;;;1.00;0.80;;;22.70;99.90;;;;;;5053990;28;20198;-65
2023/07/05 12:56:47;;;;;;;0.93;0.73;;;22.50;99.90;;;;;;5053682;28;20402;-62
2023/07/05 12:59:29;;;;;;;0.67;0.53;;;22.50;99.90;;;;;;5053582;28;20289;-63
2023/07/05 13:01:56;;;;;;;0.77;0.63;;;22.30;99.90;;;;;;5051946;28;20198;-61